Time;durP1;ratioP1;P1;durP2;ratioP2;P2;SDS_P1;SDS_P2;PMS_P1;PMS_P2;Temp;Humidity;BMP_temperature;BMP_pressure;BME280_temperature;BME280_humidity;BME280_pressure;Samples;Min_cycle;Max_cycle;Signal;HPM_P1;HPM_P2
2023/04/24 00:01:08;;;;;;;11.20;7.95;;;;;;;9.28;83.15;100103.59;5049478;28;20048;-43
2023/04/24 00:03:36;;;;;;;9.85;7.28;;;;;;;9.26;83.01;100100.38;5052381;28;20392;-43
2023/04/24 00:06:05;;;;;;;9.63;6.95;;;;;;;9.22;83.12;100103.03;5052119;28;20069;-42
2023/04/24 00:08:32;;;;;;;11.93;8.32;;;;;;;9.23;83.03;100106.59;5058270;28;20052;-42
2023/04/24 00:10:59;;;;;;;14.32;8.57;;;;;;;9.22;82.96;100110.50;5053102;28;20526;-44
2023/04/24 00:13:28;;;;;;;9.85;7.57;;;;;;;9.18;82.99;100110.44;5051996;28;20053;-43
2023/04/24 00:15:55;;;;;;;15.95;8.00;;;;;;;9.10;82.52;100103.91;5034072;28;20159;-43
2023/04/24 00:18:22;;;;;;;11.35;6.75;;;;;;;9.02;82.89;100099.31;5051792;28;20541;-46
2023/04/24 00:20:49;;;;;;;12.35;6.55;;;;;;;8.95;82.82;100107.38;5050609;28;20041;-44
2023/04/24 00:23:15;;;;;;;14.43;9.07;;;;;;;8.89;83.00;100108.00;5052270;28;20057;-44
2023/04/24 00:25:42;;;;;;;11.10;5.97;;;;;;;8.86;83.12;100105.94;5051895;28;20045;-43
2023/04/24 00:28:09;;;;;;;12.18;5.88;;;;;;;8.79;83.38;100109.25;5051945;28;20509;-50
2023/04/24 00:30:36;;;;;;;14.45;6.38;;;;;;;8.75;83.18;100113.88;5055250;28;20482;-43
2023/04/24 00:33:02;;;;;;;11.23;5.97;;;;;;;8.70;83.35;100100.34;5052378;28;20049;-42
2023/04/24 00:35:29;;;;;;;9.05;5.45;;;;;;;8.68;83.36;100101.84;5049032;28;20130;-43
2023/04/24 00:37:56;;;;;;;10.20;5.53;;;;;;;8.63;83.31;100104.84;5051318;28;20406;-50
2023/04/24 00:40:23;;;;;;;8.57;5.65;;;;;;;8.60;83.39;100100.00;5051842;28;20145;-48
2023/04/24 00:42:49;;;;;;;12.18;6.45;;;;;;;8.59;83.38;100096.44;5052303;28;20120;-43
2023/04/24 00:45:17;;;;;;;11.98;5.78;;;;;;;8.59;83.37;100093.69;5057465;28;20406;-43
2023/04/24 00:47:45;;;;;;;11.32;5.90;;;;;;;8.58;83.25;100092.06;5051381;28;20053;-42
2023/04/24 00:50:14;;;;;;;12.98;5.85;;;;;;;8.54;83.28;100091.97;5049794;28;20479;-44
2023/04/24 00:52:40;;;;;;;10.13;5.95;;;;;;;8.52;83.17;100097.00;5051622;28;20130;-42
2023/04/24 00:55:08;;;;;;;10.43;5.40;;;;;;;8.48;83.42;100100.81;5051143;28;20044;-48
2023/04/24 00:57:35;;;;;;;9.13;6.13;;;;;;;8.45;83.42;100096.00;5051181;28;20055;-42
2023/04/24 01:00:03;;;;;;;13.68;7.40;;;;;;;8.40;83.34;100091.53;5050683;28;20072;-43
2023/04/24 01:02:30;;;;;;;8.93;5.35;;;;;;;8.38;83.57;100093.03;5050730;28;20134;-43
2023/04/24 01:04:57;;;;;;;11.48;5.93;;;;;;;8.36;83.59;100087.88;5050688;28;20144;-44
2023/04/24 01:07:24;;;;;;;13.13;6.22;;;;;;;8.34;83.62;100103.16;5050859;28;20041;-43
2023/04/24 01:09:51;;;;;;;9.50;6.20;;;;;;;8.34;83.85;100098.41;5049948;28;20055;-46
2023/04/24 01:12:19;;;;;;;10.45;5.47;;;;;;;8.33;83.63;100099.59;5051083;28;20037;-42
2023/04/24 01:14:46;;;;;;;16.67;6.55;;;;;;;8.30;83.62;100097.50;5049099;28;20051;-43
2023/04/24 01:17:13;;;;;;;11.60;6.88;;;;;;;8.26;83.70;100096.53;5058217;28;20759;-42
2023/04/24 01:19:39;;;;;;;11.48;5.20;;;;;;;8.25;83.72;100096.91;5050892;28;20045;-43
2023/04/24 01:22:16;;;;;;;13.27;5.18;;;;;;;8.24;83.81;100095.28;5050832;28;20514;-43
2023/04/24 01:24:43;;;;;;;11.02;5.60;;;;;;;8.20;83.81;100103.47;5051232;28;20049;-42
2023/04/24 01:27:10;;;;;;;11.20;5.22;;;;;;;8.18;83.96;100108.50;5049641;28;20060;-46
2023/04/24 01:29:37;;;;;;;10.40;4.90;;;;;;;8.18;83.96;100102.97;5051111;28;20065;-49
2023/04/24 01:32:05;;;;;;;11.07;5.07;;;;;;;8.17;83.92;100104.16;5052417;28;20049;-51
2023/04/24 01:34:32;;;;;;;14.52;5.03;;;;;;;8.18;84.33;100105.75;5052781;28;20148;-44
2023/04/24 01:36:59;;;;;;;9.05;4.53;;;;;;;8.18;84.10;100105.75;5050605;28;20049;-42
2023/04/24 01:39:28;;;;;;;7.35;4.60;;;;;;;8.21;84.08;100118.03;5050439;28;20052;-43
2023/04/24 01:41:56;;;;;;;10.88;4.35;;;;;;;8.21;84.21;100121.59;5033171;28;20456;-42
2023/04/24 01:44:23;;;;;;;10.40;4.90;;;;;;;8.24;84.23;100120.91;5049284;28;20048;-43
2023/04/24 01:46:50;;;;;;;8.27;4.50;;;;;;;8.26;84.28;100107.56;5050863;28;20056;-43
2023/04/24 01:49:17;;;;;;;10.02;4.85;;;;;;;8.28;84.36;100107.28;5048998;28;20161;-48
2023/04/24 01:51:44;;;;;;;14.43;6.43;;;;;;;8.31;84.36;100103.84;5050794;28;20128;-43
2023/04/24 01:54:11;;;;;;;11.30;4.47;;;;;;;8.32;84.30;100116.47;5050869;28;20053;-44
2023/04/24 01:56:42;;;;;;;7.97;4.90;;;;;;;8.34;84.42;100114.19;5050391;28;20060;-45
2023/04/24 01:59:12;;;;;;;10.15;4.63;;;;;;;8.32;84.42;100120.03;5049171;28;20049;-47
2023/04/24 02:01:39;;;;;;;11.95;6.85;;;;;;;8.33;84.63;100124.41;5050062;28;20087;-43
2023/04/24 02:04:07;;;;;;;11.40;4.32;;;;;;;8.38;84.56;100120.59;5050439;28;20052;-44
2023/04/24 02:06:35;;;;;;;12.95;4.97;;;;;;;8.38;84.67;100124.16;5050239;28;20048;-45
2023/04/24 02:09:03;;;;;;;8.90;4.07;;;;;;;8.39;84.63;100116.69;5052645;28;20099;-45
2023/04/24 02:11:30;;;;;;;10.55;5.15;;;;;;;8.40;84.67;100121.06;5048788;28;20041;-43
2023/04/24 02:13:57;;;;;;;10.10;4.60;;;;;;;8.42;84.72;100121.50;5049567;28;20072;-45
2023/04/24 02:16:24;;;;;;;12.02;4.85;;;;;;;8.45;84.86;100121.63;5049724;28;20044;-43
2023/04/24 02:18:51;;;;;;;6.95;4.55;;;;;;;8.48;84.78;100125.66;5049467;28;20339;-51
2023/04/24 02:21:18;;;;;;;7.30;4.45;;;;;;;8.49;84.83;100127.25;5049718;28;20402;-44
2023/04/24 02:23:45;;;;;;;8.90;4.15;;;;;;;8.49;84.95;100125.31;5049560;28;20037;-48
2023/04/24 02:26:11;;;;;;;8.82;3.67;;;;;;;8.50;84.94;100128.84;5056942;28;20608;-51
2023/04/24 02:28:38;;;;;;;9.63;5.25;;;;;;;8.52;85.05;100129.34;5049649;28;20051;-43
2023/04/24 02:31:06;;;;;;;8.18;3.58;;;;;;;8.53;84.92;100128.97;5053206;28;20131;-44
2023/04/24 02:33:33;;;;;;;6.47;3.67;;;;;;;8.55;84.91;100131.41;5047965;28;20458;-45
2023/04/24 02:35:59;;;;;;;7.75;4.15;;;;;;;8.54;85.01;100127.03;5049445;28;20084;-44
2023/04/24 02:38:26;;;;;;;8.50;3.97;;;;;;;8.56;85.00;100138.50;5049545;28;20033;-43
2023/04/24 02:40:53;;;;;;;6.90;3.63;;;;;;;8.56;85.32;100139.31;5049569;28;20057;-46
2023/04/24 02:43:20;;;;;;;10.18;4.22;;;;;;;8.60;85.24;100142.19;5051373;28;20048;-44
2023/04/24 02:45:47;;;;;;;7.60;3.33;;;;;;;8.62;85.22;100134.38;5055031;28;20045;-43
2023/04/24 02:48:14;;;;;;;7.80;3.35;;;;;;;8.67;85.42;100147.13;5047889;28;20064;-43
2023/04/24 02:50:40;;;;;;;6.30;3.80;;;;;;;8.70;85.28;100150.00;5048948;28;20045;-44
2023/04/24 02:53:07;;;;;;;11.57;3.80;;;;;;;8.72;85.20;100144.94;5049181;28;20574;-43
2023/04/24 02:55:34;;;;;;;9.27;4.28;;;;;;;8.74;85.36;100153.66;5049247;28;20049;-43
2023/04/24 02:58:01;;;;;;;9.70;3.90;;;;;;;8.73;85.50;100154.03;5048092;28;20102;-45
2023/04/24 03:03:02;;;;;;;12.52;6.53;;;;;;;8.75;85.63;100157.22;5005884;28;20073;-43
2023/04/24 03:05:30;;;;;;;10.50;4.68;;;;;;;8.74;85.69;100150.91;5008641;28;20081;-43
2023/04/24 03:07:57;;;;;;;9.00;3.90;;;;;;;8.77;85.85;100155.72;5009073;28;20038;-43
2023/04/24 03:10:24;;;;;;;9.25;4.40;;;;;;;8.77;86.07;100150.22;5009370;28;20466;-45
2023/04/24 03:12:51;;;;;;;8.27;4.10;;;;;;;8.76;86.21;100159.66;5009368;28;20048;-43
2023/04/24 03:15:18;;;;;;;8.57;4.95;;;;;;;8.77;86.29;100152.16;5009589;28;20056;-43
2023/04/24 03:17:45;;;;;;;8.98;4.35;;;;;;;8.80;86.32;100149.53;5009240;28;20394;-43
2023/04/24 03:20:12;;;;;;;9.68;4.40;;;;;;;8.80;86.28;100152.28;5009019;28;20065;-49
2023/04/24 03:22:38;;;;;;;11.65;4.40;;;;;;;8.80;86.22;100165.28;5009057;28;20033;-43
2023/04/24 03:25:06;;;;;;;9.63;5.28;;;;;;;8.79;86.41;100158.94;5008922;28;20403;-43
2023/04/24 03:27:32;;;;;;;8.98;4.50;;;;;;;8.78;86.37;100154.59;5002292;28;20064;-44
2023/04/24 03:30:08;;;;;;;6.55;4.90;;;;;;;8.77;86.77;100152.97;5012674;28;20511;-44
2023/04/24 03:32:35;;;;;;;10.73;5.68;;;;;;;8.75;86.59;100157.22;5009317;28;20050;-51
2023/04/24 03:35:02;;;;;;;6.15;4.57;;;;;;;8.75;86.83;100157.22;5008772;28;20411;-43
2023/04/24 03:37:29;;;;;;;15.00;5.93;;;;;;;8.73;86.77;100154.84;5008993;28;20054;-43
2023/04/24 03:39:56;;;;;;;12.88;7.15;;;;;;;8.71;86.86;100151.59;5008882;28;20512;-44
2023/04/24 03:42:23;;;;;;;11.05;4.10;;;;;;;8.69;86.97;100148.38;5009121;28;20056;-43
2023/04/24 03:44:50;;;;;;;9.52;4.40;;;;;;;8.64;87.11;100145.88;4991067;28;20046;-47
2023/04/24 03:47:16;;;;;;;8.90;3.50;;;;;;;8.63;87.21;100149.75;5008897;28;20038;-43
2023/04/24 03:49:43;;;;;;;8.82;3.58;;;;;;;8.62;87.31;100150.13;5009229;28;20391;-43
2023/04/24 03:52:10;;;;;;;5.15;2.35;;;;;;;8.53;87.29;100145.53;5008641;28;20567;-43
2023/04/24 03:54:37;;;;;;;5.90;2.40;;;;;;;8.52;87.44;100154.16;5008871;28;20554;-48
2023/04/24 03:57:04;;;;;;;6.03;2.00;;;;;;;8.48;87.45;100153.22;5008646;28;20038;-42
2023/04/24 03:59:31;;;;;;;6.10;2.00;;;;;;;8.46;87.59;100150.03;5008601;28;20133;-42
2023/04/24 04:01:57;;;;;;;6.85;2.08;;;;;;;8.48;87.60;100158.75;5008348;28;20219;-42
2023/04/24 04:04:25;;;;;;;6.53;2.03;;;;;;;8.49;87.67;100154.84;5008649;28;20064;-42
2023/04/24 04:06:52;;;;;;;4.82;2.08;;;;;;;8.48;87.96;100154.03;5009023;28;20042;-42
2023/04/24 04:09:18;;;;;;;7.55;2.15;;;;;;;8.46;87.71;100150.84;4990790;28;20504;-47
2023/04/24 04:11:45;;;;;;;8.35;2.33;;;;;;;8.49;87.60;100152.09;5008339;28;20430;-43
2023/04/24 04:14:12;;;;;;;6.72;2.35;;;;;;;8.46;87.74;100158.28;5008861;28;20045;-43
2023/04/24 04:16:41;;;;;;;5.35;2.55;;;;;;;8.42;87.91;100160.94;5008569;28;20132;-43
2023/04/24 04:19:08;;;;;;;8.93;1.77;;;;;;;8.37;87.89;100163.91;5008220;28;20498;-45
2023/04/24 04:21:35;;;;;;;4.00;1.83;;;;;;;8.34;87.88;100152.78;5008697;28;20096;-42
2023/04/24 04:24:01;;;;;;;9.13;2.92;;;;;;;8.33;87.82;100163.00;5009048;28;20411;-43
2023/04/24 04:26:31;;;;;;;8.65;2.35;;;;;;;8.33;87.93;100162.19;5008459;28;20046;-43
2023/04/24 04:29:00;;;;;;;9.73;2.70;;;;;;;8.30;87.77;100162.88;5008110;28;20062;-42
2023/04/24 04:31:27;;;;;;;6.25;2.30;;;;;;;8.26;87.90;100159.19;4975126;28;20126;-42
2023/04/24 04:33:53;;;;;;;8.63;2.58;;;;;;;8.25;88.00;100165.84;5008962;28;20145;-42
2023/04/24 04:36:20;;;;;;;9.40;2.33;;;;;;;8.20;88.14;100179.84;5008318;28;20050;-42
2023/04/24 04:38:48;;;;;;;9.15;2.15;;;;;;;8.12;88.30;100172.50;4994616;28;20049;-42
2023/04/24 04:41:16;;;;;;;9.80;2.88;;;;;;;8.03;88.39;100186.38;5012433;28;20057;-42
2023/04/24 04:43:43;;;;;;;10.07;3.53;;;;;;;7.99;88.55;100186.25;5012225;28;20046;-46
2023/04/24 04:46:10;;;;;;;10.98;2.58;;;;;;;7.95;88.78;100188.09;5012089;28;20121;-42
2023/04/24 04:48:37;;;;;;;13.30;2.97;;;;;;;7.90;88.93;100199.31;5012437;28;20459;-41
2023/04/24 04:51:04;;;;;;;11.63;2.63;;;;;;;7.89;89.12;100194.94;5011672;28;20085;-42
2023/04/24 04:53:31;;;;;;;11.57;2.50;;;;;;;7.89;89.27;100205.97;5012291;28;20056;-42
2023/04/24 04:55:58;;;;;;;11.80;2.47;;;;;;;7.85;89.24;100213.31;5011519;28;20067;-42
2023/04/24 04:58:25;;;;;;;21.60;5.65;;;;;;;7.81;89.41;100211.59;5012406;28;20050;-42
2023/04/24 05:00:52;;;;;;;10.32;2.78;;;;;;;7.79;89.69;100217.44;5011260;28;20491;-42
2023/04/24 05:03:18;;;;;;;7.50;2.78;;;;;;;7.76;89.65;100211.78;5012138;28;20113;-42
2023/04/24 05:05:47;;;;;;;9.27;2.30;;;;;;;7.66;89.84;100226.00;5011815;28;20057;-42
2023/04/24 05:08:14;;;;;;;11.43;2.38;;;;;;;7.56;89.99;100224.47;5011416;28;20068;-41
2023/04/24 05:10:43;;;;;;;12.02;2.33;;;;;;;7.45;90.05;100228.78;5011315;28;20104;-41
2023/04/24 05:13:10;;;;;;;8.93;2.70;;;;;;;7.38;90.07;100225.75;5011414;28;20042;-41
2023/04/24 05:15:39;;;;;;;7.32;2.80;;;;;;;7.32;90.14;100221.59;5011956;28;20464;-41
2023/04/24 05:18:06;;;;;;;10.68;3.45;;;;;;;7.25;90.31;100232.34;5011456;28;20053;-41
2023/04/24 05:20:33;;;;;;;10.38;2.40;;;;;;;7.18;90.52;100237.56;5011189;28;20026;-41
2023/04/24 05:23:00;;;;;;;7.43;1.92;;;;;;;7.11;90.67;100243.59;5011217;28;20057;-41
2023/04/24 05:25:26;;;;;;;12.15;2.33;;;;;;;7.05;90.62;100238.63;5011112;28;20100;-41
2023/04/24 05:27:53;;;;;;;8.55;2.20;;;;;;;6.98;91.15;100244.66;5011325;28;20053;-41
2023/04/24 05:30:20;;;;;;;12.65;1.77;;;;;;;6.89;91.11;100248.59;5010416;28;20145;-40
2023/04/24 05:32:47;;;;;;;10.00;2.25;;;;;;;6.81;91.13;100246.69;5011418;28;20462;-40
2023/04/24 05:35:14;;;;;;;10.93;2.45;;;;;;;6.74;91.31;100255.47;5010991;28;20052;-41
2023/04/24 05:37:41;;;;;;;10.60;3.65;;;;;;;6.63;91.21;100260.56;5011289;28;20135;-40
2023/04/24 05:40:08;;;;;;;11.55;2.35;;;;;;;6.55;91.31;100263.34;5010755;28;20053;-40
2023/04/24 05:42:35;;;;;;;6.95;1.83;;;;;;;6.48;91.49;100268.56;5010998;28;20125;-48
2023/04/24 05:45:02;;;;;;;5.80;1.73;;;;;;;6.42;91.22;100273.41;5010439;28;20060;-41
2023/04/24 05:47:29;;;;;;;14.32;3.28;;;;;;;6.38;91.63;100274.41;5010717;28;20069;-40
2023/04/24 05:49:56;;;;;;;8.55;2.00;;;;;;;6.34;91.58;100268.75;5010395;28;20052;-47
2023/04/24 05:52:23;;;;;;;9.75;2.58;;;;;;;6.32;91.48;100279.28;5009643;28;20057;-40
2023/04/24 05:54:50;;;;;;;5.22;1.60;;;;;;;6.32;91.59;100290.28;5010343;28;20049;-45
2023/04/24 05:57:16;;;;;;;8.18;1.77;;;;;;;6.31;91.64;100290.59;5010230;28;20049;-41
2023/04/24 05:59:43;;;;;;;7.25;1.50;;;;;;;6.33;91.55;100294.63;5010662;28;20048;-42
2023/04/24 06:02:12;;;;;;;9.60;2.78;;;;;;;6.33;91.88;100300.13;4997876;28;20456;-41
2023/04/24 06:04:39;;;;;;;11.30;2.50;;;;;;;6.34;91.81;100307.25;4990872;28;20054;-40
2023/04/24 06:07:07;;;;;;;8.82;2.25;;;;;;;6.40;91.84;100308.69;4991166;28;20050;-42
2023/04/24 06:09:33;;;;;;;10.93;2.90;;;;;;;6.40;91.80;100305.94;4976838;28;20070;-40
2023/04/24 06:12:00;;;;;;;8.48;3.22;;;;;;;6.41;92.11;100313.03;4973491;28;20082;-41
2023/04/24 06:14:27;;;;;;;9.65;3.33;;;;;;;6.40;92.33;100327.13;4990585;28;20492;-40
2023/04/24 06:16:53;;;;;;;9.27;2.50;;;;;;;6.35;92.29;100319.88;4990413;28;20497;-40
2023/04/24 06:19:20;;;;;;;9.05;3.72;;;;;;;6.39;92.55;100328.25;4990766;28;20372;-44
2023/04/24 06:21:47;;;;;;;6.55;3.45;;;;;;;6.37;92.54;100334.09;4990426;28;20563;-45
2023/04/24 06:24:16;;;;;;;8.32;2.55;;;;;;;6.35;92.37;100336.38;5002264;28;20501;-45
2023/04/24 06:26:42;;;;;;;5.50;1.90;;;;;;;6.35;92.69;100341.03;4990250;28;20046;-45
2023/04/24 06:29:09;;;;;;;4.40;1.92;;;;;;;6.33;92.82;100346.06;4990134;28;20046;-40
2023/04/24 06:31:36;;;;;;;2.88;1.88;;;;;;;6.31;92.83;100345.56;4994515;28;20060;-41
2023/04/24 06:34:03;;;;;;;3.08;1.50;;;;;;;6.31;92.66;100357.38;4986507;28;20570;-40
2023/04/24 06:36:31;;;;;;;3.15;1.38;;;;;;;6.25;92.84;100349.66;4984041;28;20475;-42
2023/04/24 06:38:57;;;;;;;5.20;1.40;;;;;;;6.20;92.80;100356.09;4986767;28;20129;-40
2023/04/24 06:41:24;;;;;;;6.18;1.20;;;;;;;6.16;92.79;100362.56;4983908;28;20058;-44
2023/04/24 06:43:51;;;;;;;5.03;1.42;;;;;;;6.13;92.75;100362.09;4983376;28;20050;-40
2023/04/24 06:46:18;;;;;;;2.70;1.00;;;;;;;6.11;92.77;100369.06;4994253;28;20408;-40
2023/04/24 06:48:45;;;;;;;5.25;1.13;;;;;;;6.09;93.04;100379.53;4989910;28;20377;-40
2023/04/24 06:51:12;;;;;;;4.95;1.25;;;;;;;6.09;92.89;100376.78;4990093;28;20065;-43
2023/04/24 06:53:39;;;;;;;2.70;1.08;;;;;;;6.08;93.07;100375.19;4989860;28;20436;-40
2023/04/24 06:56:06;;;;;;;6.80;1.52;;;;;;;6.05;92.89;100371.16;4989553;28;20050;-41
2023/04/24 06:58:33;;;;;;;3.15;1.27;;;;;;;6.09;93.25;100379.53;4989766;28;20054;-41
2023/04/24 07:01:00;;;;;;;4.07;1.50;;;;;;;6.07;93.00;100373.56;4976374;28;20046;-41
2023/04/24 07:03:27;;;;;;;4.10;2.28;;;;;;;6.06;93.11;100375.50;5008749;28;20558;-41
2023/04/24 07:05:54;;;;;;;6.80;1.88;;;;;;;6.05;93.25;100389.59;5009396;28;20049;-41
2023/04/24 07:08:21;;;;;;;3.50;1.67;;;;;;;6.05;93.44;100392.31;5009120;28;20120;-40
2023/04/24 07:10:50;;;;;;;9.48;2.88;;;;;;;6.05;93.25;100389.59;5008382;28;20136;-41
2023/04/24 07:13:17;;;;;;;4.28;2.20;;;;;;;6.06;93.38;100402.19;5011498;28;20049;-41
2023/04/24 07:15:44;;;;;;;6.07;1.58;;;;;;;6.08;93.57;100386.19;5002835;28;20060;-41
2023/04/24 07:18:12;;;;;;;3.85;1.88;;;;;;;6.08;93.50;100403.50;4999070;28;20112;-40
2023/04/24 07:20:40;;;;;;;5.47;2.50;;;;;;;6.10;93.66;100400.41;5002985;28;20503;-44
2023/04/24 07:23:07;;;;;;;5.82;1.70;;;;;;;6.13;93.64;100406.06;4982801;28;20721;-42
2023/04/24 07:25:34;;;;;;;7.65;2.30;;;;;;;6.19;93.73;100414.97;4996663;28;20046;-47
2023/04/24 07:28:01;;;;;;;4.47;2.17;;;;;;;6.19;93.72;100409.47;5004431;28;20411;-41
2023/04/24 07:30:29;;;;;;;3.38;2.00;;;;;;;6.20;93.69;100416.56;5002034;28;20042;-41
2023/04/24 07:32:55;;;;;;;3.40;1.98;;;;;;;6.23;93.81;100424.16;5007331;28;20054;-41
2023/04/24 07:35:25;;;;;;;4.00;1.73;;;;;;;6.25;93.92;100427.41;4989438;28;20227;-41
2023/04/24 07:37:53;;;;;;;6.47;1.55;;;;;;;6.22;94.06;100425.31;5007124;28;20060;-41
2023/04/24 07:40:20;;;;;;;6.38;1.88;;;;;;;6.19;94.05;100425.16;4989939;28;20057;-48
2023/04/24 07:42:48;;;;;;;5.43;1.45;;;;;;;6.15;94.17;100433.22;4990434;28;20046;-41
2023/04/24 07:45:15;;;;;;;5.38;2.13;;;;;;;6.12;94.20;100433.88;5008726;28;20479;-42
2023/04/24 07:47:43;;;;;;;5.85;2.35;;;;;;;6.18;94.09;100434.50;5009311;28;20423;-41
2023/04/24 07:50:10;;;;;;;8.55;1.90;;;;;;;6.22;94.50;100430.81;5008985;28;20088;-41
2023/04/24 07:52:37;;;;;;;7.25;2.55;;;;;;;6.30;94.58;100432.72;5009402;28;20407;-43
2023/04/24 07:55:05;;;;;;;11.68;2.42;;;;;;;6.37;94.55;100438.56;5008915;28;20459;-43
2023/04/24 07:57:32;;;;;;;9.93;2.33;;;;;;;6.48;94.66;100445.34;5008795;28;20053;-41
2023/04/24 07:59:58;;;;;;;6.65;1.95;;;;;;;6.57;94.42;100448.06;4994260;28;20125;-41
2023/04/24 08:02:26;;;;;;;3.55;1.90;;;;;;;6.63;94.40;100444.84;5008485;28;20049;-41
2023/04/24 08:04:54;;;;;;;4.88;2.50;;;;;;;6.74;94.30;100457.13;5009558;28;20038;-42
2023/04/24 08:07:21;;;;;;;7.53;2.88;;;;;;;6.85;94.45;100456.78;5008362;28;20053;-42
2023/04/24 08:09:49;;;;;;;9.77;2.15;;;;;;;6.91;94.29;100459.00;5009080;28;20050;-42
2023/04/24 08:12:16;;;;;;;8.05;2.20;;;;;;;6.98;94.11;100464.03;5008660;28;20049;-43
2023/04/24 08:14:43;;;;;;;9.52;2.50;;;;;;;7.06;94.34;100466.75;5010297;28;20053;-42
2023/04/24 08:17:10;;;;;;;6.53;2.70;;;;;;;7.11;94.22;100472.09;5012128;28;20046;-43
2023/04/24 08:19:37;;;;;;;6.18;2.15;;;;;;;7.17;94.12;100473.53;5012558;28;20571;-42
2023/04/24 08:22:04;;;;;;;10.77;1.98;;;;;;;7.24;94.20;100479.31;5012521;28;20048;-42
2023/04/24 08:24:30;;;;;;;7.30;2.00;;;;;;;7.26;93.85;100476.22;5009907;28;20052;-43
2023/04/24 08:26:58;;;;;;;12.73;2.45;;;;;;;7.26;93.75;100467.97;5010410;28;20046;-47
2023/04/24 08:29:25;;;;;;;11.63;2.13;;;;;;;7.34;94.11;100473.44;5011969;28;20543;-43
2023/04/24 08:31:54;;;;;;;6.70;1.75;;;;;;;7.49;94.10;100483.13;5003065;28;20073;-44
2023/04/24 08:34:21;;;;;;;5.82;1.67;;;;;;;7.58;93.92;100483.06;4990402;28;20567;-42
2023/04/24 08:36:48;;;;;;;8.48;2.65;;;;;;;7.59;93.39;100491.00;4986871;28;20414;-46
2023/04/24 08:39:15;;;;;;;18.20;3.20;;;;;;;7.62;93.39;100484.84;4988003;28;20057;-43
2023/04/24 08:41:43;;;;;;;5.15;1.85;;;;;;;7.63;93.37;100480.94;4988425;28;20049;-52
2023/04/24 08:44:10;;;;;;;7.22;2.88;;;;;;;7.57;93.67;100487.75;4988526;28;20077;-43
2023/04/24 08:46:37;;;;;;;8.65;2.67;;;;;;;7.58;93.80;100486.63;4994701;28;20050;-46
2023/04/24 08:49:04;;;;;;;8.40;1.77;;;;;;;7.60;93.94;100489.84;4994584;28;20204;-47
2023/04/24 08:51:31;;;;;;;9.30;1.83;;;;;;;7.68;93.93;100499.22;4995747;28;20045;-43
2023/04/24 08:53:58;;;;;;;8.00;1.25;;;;;;;7.69;93.71;100507.16;4994685;28;20058;-43
2023/04/24 08:56:28;;;;;;;5.00;1.95;;;;;;;7.71;93.60;100502.13;4996101;28;20414;-46
2023/04/24 08:58:55;;;;;;;9.02;2.05;;;;;;;7.73;93.79;100505.34;4993476;28;20068;-43
2023/04/24 09:01:25;;;;;;;11.38;1.95;;;;;;;7.76;93.73;100507.44;4975163;28;20526;-42
2023/04/24 09:03:54;;;;;;;8.55;2.28;;;;;;;7.81;93.71;100510.00;4995816;28;20361;-42
2023/04/24 09:06:21;;;;;;;5.60;1.75;;;;;;;7.85;93.52;100510.16;4994391;28;20273;-43
2023/04/24 09:08:52;;;;;;;4.32;1.88;;;;;;;7.94;93.71;100508.19;4994649;28;20048;-43
2023/04/24 09:11:19;;;;;;;4.22;1.77;;;;;;;7.96;93.36;100517.72;4993795;28;20401;-43
2023/04/24 09:13:46;;;;;;;3.10;1.20;;;;;;;7.96;93.03;100517.72;4994872;28;20046;-47
2023/04/24 09:16:14;;;;;;;6.53;2.22;;;;;;;7.98;93.14;100523.72;4994354;28;20049;-44
2023/04/24 09:18:41;;;;;;;3.08;1.55;;;;;;;8.04;93.22;100526.28;4995168;28;20459;-43
2023/04/24 09:21:09;;;;;;;5.68;1.60;;;;;;;8.14;93.40;100528.63;4994472;28;20049;-43
2023/04/24 09:23:36;;;;;;;4.78;1.60;;;;;;;8.18;93.23;100535.13;4992461;28;20056;-47
2023/04/24 09:26:06;;;;;;;6.03;1.98;;;;;;;8.22;93.10;100533.28;4992184;28;20045;-45
2023/04/24 09:28:37;;;;;;;5.55;1.52;;;;;;;8.25;93.14;100551.94;4992570;28;20048;-43
2023/04/24 09:31:06;;;;;;;2.70;1.45;;;;;;;8.28;93.04;100545.78;4994368;28;20050;-43
2023/04/24 09:33:34;;;;;;;4.47;1.60;;;;;;;8.27;93.11;100544.97;4993828;28;20092;-49
2023/04/24 09:36:03;;;;;;;7.13;2.92;;;;;;;8.27;93.00;100549.66;4993920;28;20058;-43
2023/04/24 09:38:36;;;;;;;3.90;1.70;;;;;;;8.35;93.25;100544.09;4988551;28;20065;-45
2023/04/24 09:41:07;;;;;;;8.77;2.47;;;;;;;8.47;93.04;100549.69;4987931;28;20058;-42
2023/04/24 09:43:35;;;;;;;3.65;2.25;;;;;;;8.53;92.95;100551.09;4968691;28;20048;-46
2023/04/24 09:46:07;;;;;;;2.58;1.67;;;;;;;8.60;92.69;100552.53;4993703;28;20073;-48
2023/04/24 09:48:36;;;;;;;3.65;2.08;;;;;;;8.67;92.54;100564.63;4994120;28;21010;-50
2023/04/24 09:51:06;;;;;;;3.58;1.60;;;;;;;8.61;92.14;100560.47;4993303;28;20168;-44
2023/04/24 09:53:33;;;;;;;5.75;1.55;;;;;;;8.57;91.92;100565.03;4991902;28;20062;-43
2023/04/24 09:56:09;;;;;;;9.05;1.77;;;;;;;8.54;91.79;100560.19;4992379;28;20136;-47
2023/04/24 09:58:37;;;;;;;6.82;1.70;;;;;;;8.44;91.30;100566.13;4992123;28;20641;-43
2023/04/24 10:01:05;;;;;;;7.43;2.13;;;;;;;8.34;91.01;100563.75;4996329;28;20054;-42
2023/04/24 10:03:33;;;;;;;8.70;1.67;;;;;;;8.27;91.04;100571.72;4986839;28;20053;-42
2023/04/24 10:06:01;;;;;;;2.83;1.83;;;;;;;8.27;90.95;100574.50;5002735;28;20053;-47
2023/04/24 10:08:37;;;;;;;4.57;2.03;;;;;;;8.28;90.74;100576.13;5003256;28;20526;-43
2023/04/24 10:11:04;;;;;;;2.72;1.42;;;;;;;8.34;90.81;100577.53;5002110;28;20049;-42
2023/04/24 10:13:32;;;;;;;4.90;1.80;;;;;;;8.36;90.29;100578.00;5003896;28;20066;-42
2023/04/24 10:16:00;;;;;;;4.22;1.60;;;;;;;8.41;90.18;100583.34;5002854;28;20145;-43
2023/04/24 10:18:28;;;;;;;6.22;1.50;;;;;;;8.53;90.10;100586.16;5004302;28;20046;-48
2023/04/24 10:20:55;;;;;;;8.27;2.25;;;;;;;8.64;90.09;100583.81;5002591;28;20156;-48
2023/04/24 10:23:23;;;;;;;7.22;2.53;;;;;;;8.76;89.76;100583.91;4985575;28;20403;-43
2023/04/24 10:25:51;;;;;;;4.90;2.00;;;;;;;8.84;89.45;100592.09;5001253;28;20096;-44
2023/04/24 10:28:19;;;;;;;7.80;2.05;;;;;;;8.90;89.20;100587.16;5002723;28;20096;-47
2023/04/24 10:30:46;;;;;;;9.80;2.10;;;;;;;8.99;89.13;100585.97;5003017;28;20233;-42
2023/04/24 10:33:13;;;;;;;6.32;1.73;;;;;;;9.08;88.89;100594.97;5002724;28;20042;-42
2023/04/24 10:35:44;;;;;;;5.40;1.58;;;;;;;9.15;88.70;100589.72;5002682;28;20137;-43
2023/04/24 10:38:16;;;;;;;2.88;1.50;;;;;;;9.15;88.05;100603.53;5003651;28;20042;-43
2023/04/24 10:40:44;;;;;;;7.50;2.30;;;;;;;9.23;88.16;100601.03;5003247;28;20518;-44
2023/04/24 10:43:16;;;;;;;5.05;3.08;;;;;;;9.27;87.53;100607.47;5003217;28;20041;-44
2023/04/24 10:46:00;;;;;;;8.77;2.15;;;;;;;9.27;87.02;100613.00;5002431;28;20061;-47
2023/04/24 10:48:27;;;;;;;7.07;1.67;;;;;;;9.26;86.63;100614.16;5004103;28;20140;-49
2023/04/24 10:50:54;;;;;;;10.30;2.03;;;;;;;9.20;86.15;100616.31;5002720;28;20060;-44
2023/04/24 10:53:23;;;;;;;4.93;1.50;;;;;;;9.21;85.92;100617.13;5002156;28;20058;-43
2023/04/24 10:55:52;;;;;;;6.20;2.00;;;;;;;9.26;85.72;100617.72;5002892;28;20145;-45
2023/04/24 10:58:23;;;;;;;7.55;2.03;;;;;;;9.34;85.48;100618.78;5004011;28;20042;-43
2023/04/24 11:00:59;;;;;;;3.13;1.17;;;;;;;9.36;84.99;100633.06;5002385;28;20046;-43
2023/04/24 11:03:28;;;;;;;5.40;2.72;;;;;;;9.39;84.97;100629.63;5003035;28;20085;-45
2023/04/24 11:06:02;;;;;;;10.30;1.88;;;;;;;9.41;84.77;100630.91;5001822;28;20148;-47
2023/04/24 11:08:42;;;;;;;8.77;3.00;;;;;;;9.54;84.82;100640.03;5002862;28;20052;-44
2023/04/24 11:11:13;;;;;;;7.03;2.33;;;;;;;9.59;84.35;100645.34;5002761;28;20049;-44
2023/04/24 11:13:58;;;;;;;7.97;2.17;;;;;;;9.76;84.43;100639.66;5003156;28;20050;-43
2023/04/24 11:16:33;;;;;;;7.80;1.67;;;;;;;9.96;83.65;100644.28;5002058;28;20050;-45
2023/04/24 11:19:08;;;;;;;8.23;3.05;;;;;;;10.09;83.02;100645.09;5002300;28;20057;-45
2023/04/24 11:21:48;;;;;;;2.40;1.10;;;;;;;10.01;81.98;100652.34;5002253;28;20046;-44
2023/04/24 11:24:39;;;;;;;7.28;1.85;;;;;;;9.88;81.88;100656.25;5002472;28;20049;-44
2023/04/24 11:27:13;;;;;;;6.05;1.73;;;;;;;9.69;81.22;100658.72;5002807;28;20054;-43
2023/04/24 11:29:45;;;;;;;9.40;1.83;;;;;;;9.49;80.49;100662.34;5002574;28;20053;-43
2023/04/24 11:32:19;;;;;;;11.90;2.33;;;;;;;9.36;80.21;100674.50;5002066;28;20045;-46
2023/04/24 11:34:50;;;;;;;4.05;1.52;;;;;;;9.32;79.76;100657.78;5001883;28;20400;-47
2023/04/24 11:37:17;;;;;;;10.43;1.97;;;;;;;9.55;80.22;100666.53;5001992;28;20064;-47